Archer, Nebraska
Current Conditions -  °F | °C
As of 1:53 PM on Friday 24 Oct 2014 (Local Time) from KGRI Reporting Station
Clear Clear  
Wind Chill: 72°   Ceiling: Unl
Heat Index: 72°   Visibility: 10mi
Dew Point: 52°   Wind: 7mph
Humidity: 49%   Direction: 270°W
Pressure: 29.95"   Gusts: NA
Location:  41.17°N, 98.14°W
Report Text: KGRI 241853Z 27006KT 10SM CLR 22/11 A2995 RMK AO2 SLP131 T02220111
Loading
Personal Weather Stations






























Interactive Weather Map New forecast layout! Learn more

10-Day Weather Forecast

Advertisements
Track Severe Weather on mobile